createdAt,value
2019-04-06T00:00:39.126Z,73.00
2019-04-06T00:01:50.011Z,75.30
2019-04-06T00:02:54.629Z,75.67
2019-04-06T00:03:59.314Z,79.67
2019-04-06T00:05:03.963Z,74.70
2019-04-06T00:06:08.825Z,81.30
2019-04-06T00:07:16.444Z,67.90
2019-04-06T00:08:21.094Z,78.60
2019-04-06T00:09:25.790Z,76.50
2019-04-06T00:10:30.578Z,73.20
2019-04-06T00:11:35.245Z,77.47
2019-04-06T00:12:39.932Z,73.90
2019-04-06T00:13:44.585Z,70.03
2019-04-06T00:14:49.239Z,78.67
2019-04-06T00:15:54.012Z,76.27
2019-04-06T00:16:58.607Z,68.43
2019-04-06T00:18:03.263Z,80.53
2019-04-06T00:19:08.056Z,73.83
2019-04-06T00:20:12.890Z,86.13
2019-04-06T00:21:17.547Z,66.90
2019-04-06T00:22:22.290Z,68.27
2019-04-06T00:23:27.034Z,68.57
2019-04-06T00:24:31.719Z,75.97
2019-04-06T00:25:44.452Z,68.83
2019-04-06T00:26:42.984Z,77.53
2019-04-06T00:27:47.547Z,74.50
2019-04-06T00:28:52.204Z,80.37
2019-04-06T00:29:56.793Z,68.23
2019-04-06T00:31:09.033Z,68.73
2019-04-06T00:32:19.474Z,76.37
2019-04-06T00:33:24.227Z,79.10
2019-04-06T00:34:28.834Z,71.40
2019-04-06T00:35:33.470Z,73.70
2019-04-06T00:36:38.210Z,70.67
2019-04-06T00:37:42.829Z,71.10
2019-04-06T00:38:47.651Z,72.40
2019-04-06T00:39:52.479Z,74.00
2019-04-06T00:40:57.183Z,68.70
2019-04-06T00:42:02.028Z,68.53
2019-04-06T00:43:06.886Z,72.13
2019-04-06T00:44:11.665Z,74.63
2019-04-06T00:45:16.645Z,68.00
2019-04-06T00:46:21.417Z,68.53
2019-04-06T00:47:26.074Z,66.00
2019-04-06T00:48:30.768Z,71.73
2019-04-06T00:49:35.421Z,75.60
2019-04-06T00:50:40.083Z,75.33
2019-04-06T00:51:44.836Z,67.40
2019-04-06T00:52:49.530Z,66.07
2019-04-06T00:53:54.161Z,73.70
2019-04-06T00:54:58.839Z,73.07
2019-04-06T00:56:03.508Z,78.50
2019-04-06T00:57:08.288Z,69.27
2019-04-06T00:58:13.017Z,74.37
2019-04-06T00:59:19.053Z,74.93
2019-04-06T01:00:23.833Z,69.47
2019-04-06T01:01:28.463Z,72.97
2019-04-06T01:02:33.071Z,72.80
2019-04-06T01:03:37.719Z,74.67
2019-04-06T01:04:42.339Z,75.53
2019-04-06T01:05:47.084Z,80.37
2019-04-06T01:06:51.082Z,73.63
2019-04-06T01:07:55.790Z,76.10
2019-04-06T01:09:00.451Z,76.70
2019-04-06T01:10:05.219Z,75.13
2019-04-06T01:11:09.956Z,76.00
2019-04-06T01:12:14.616Z,75.67
2019-04-06T01:13:19.353Z,77.83
2019-04-06T01:14:23.981Z,66.60
2019-04-06T01:15:28.666Z,73.23
2019-04-06T01:16:33.260Z,70.93
2019-04-06T01:17:37.911Z,77.37
2019-04-06T01:18:42.605Z,72.30
2019-04-06T01:19:47.416Z,78.43
2019-04-06T01:20:52.276Z,73.03
2019-04-06T01:21:56.878Z,72.00
2019-04-06T01:23:01.544Z,76.87
2019-04-06T01:24:06.218Z,81.93
2019-04-06T01:25:10.951Z,74.87
2019-04-06T01:26:15.682Z,85.73
2019-04-06T01:27:20.408Z,73.23
2019-04-06T01:28:25.021Z,68.17
2019-04-06T01:29:29.733Z,77.83
2019-04-06T01:30:34.363Z,73.10
2019-04-06T01:31:39.064Z,77.93
2019-04-06T01:32:43.771Z,77.27
2019-04-06T01:33:48.582Z,75.37
2019-04-06T01:34:53.395Z,68.13
2019-04-06T01:35:58.073Z,70.57
2019-04-06T01:37:02.752Z,69.10
2019-04-06T01:38:07.376Z,72.07
2019-04-06T01:39:12.121Z,69.53
2019-04-06T01:40:16.844Z,74.30
2019-04-06T01:41:21.486Z,79.77
2019-04-06T01:42:26.214Z,79.57
2019-04-06T01:43:30.826Z,78.13
2019-04-06T01:44:35.691Z,83.10
2019-04-06T01:45:40.515Z,72.93
2019-04-06T01:46:45.100Z,77.80
2019-04-06T01:47:49.845Z,95.23
2019-04-06T01:48:54.521Z,76.77
2019-04-06T01:49:59.189Z,81.10
2019-04-06T01:51:03.913Z,90.70
2019-04-06T01:52:08.552Z,87.23
2019-04-06T01:53:13.258Z,76.33
2019-04-06T01:54:17.916Z,84.00
2019-04-06T01:55:22.540Z,76.40
2019-04-06T01:56:27.259Z,78.80
2019-04-06T01:57:31.892Z,79.27
2019-04-06T01:58:36.646Z,84.83
2019-04-06T01:59:41.362Z,84.67
2019-04-06T02:00:59.680Z,84.30
2019-04-06T02:02:18.703Z,82.00
2019-04-06T02:03:23.301Z,84.00
2019-04-06T02:04:27.986Z,76.47
2019-04-06T02:05:32.621Z,81.17
2019-04-06T02:06:37.319Z,76.17
2019-04-06T02:07:42.199Z,84.13
2019-04-06T02:08:46.836Z,74.00
2019-04-06T02:09:51.661Z,85.80
2019-04-06T02:10:56.385Z,81.63
2019-04-06T02:12:01.027Z,81.87
2019-04-06T02:13:05.769Z,89.80
2019-04-06T02:14:10.480Z,75.00
2019-04-06T02:15:15.472Z,78.47
2019-04-06T02:16:20.273Z,81.47
2019-04-06T02:17:24.854Z,76.33
2019-04-06T02:18:29.536Z,82.20
2019-04-06T02:19:34.260Z,84.47
2019-04-06T02:20:38.928Z,82.90
2019-04-06T02:21:43.580Z,93.77
2019-04-06T02:22:48.366Z,97.87
2019-04-06T02:23:52.979Z,79.67
2019-04-06T02:24:57.527Z,83.50
2019-04-06T02:26:02.662Z,87.87
2019-04-06T02:27:07.298Z,84.60
2019-04-06T02:28:12.073Z,82.37
2019-04-06T02:29:16.824Z,87.33
2019-04-06T02:30:31.314Z,74.67
2019-04-06T02:32:04.080Z,89.00
2019-04-06T02:33:27.651Z,81.20
2019-04-06T02:35:09.311Z,78.87
2019-04-06T02:36:38.939Z,77.33
2019-04-06T02:37:49.966Z,80.00
2019-04-06T02:39:12.244Z,78.00
2019-04-06T02:40:34.258Z,85.63
2019-04-06T02:41:45.573Z,85.73
2019-04-06T02:43:00.349Z,78.13
2019-04-06T02:44:04.915Z,85.70
2019-04-06T02:45:09.508Z,77.73
2019-04-06T02:46:13.876Z,83.97
2019-04-06T02:47:18.572Z,85.60
2019-04-06T02:48:23.009Z,98.50
2019-04-06T02:49:27.472Z,88.27
2019-04-06T02:50:32.035Z,89.17
2019-04-06T02:51:36.433Z,88.90
2019-04-06T02:52:40.880Z,84.97
2019-04-06T02:53:45.497Z,87.33
2019-04-06T02:54:50.230Z,94.17
2019-04-06T02:55:55.060Z,87.87
2019-04-06T02:56:59.946Z,85.97
2019-04-06T02:58:04.940Z,90.53
2019-04-06T02:59:10.043Z,86.53
2019-04-06T03:00:15.021Z,90.30
2019-04-06T03:01:19.912Z,88.83
2019-04-06T03:02:24.835Z,93.57
2019-04-06T03:03:29.766Z,91.90
2019-04-06T03:04:34.554Z,79.30
2019-04-06T03:05:39.519Z,90.67
2019-04-06T03:06:44.387Z,89.87
2019-04-06T03:07:49.160Z,71.73
2019-04-06T03:08:54.057Z,88.13
2019-04-06T03:09:58.716Z,85.40
2019-04-06T03:11:03.516Z,84.53
2019-04-06T03:12:08.551Z,92.13
2019-04-06T03:13:13.463Z,86.07
2019-04-06T03:14:18.556Z,91.33
2019-04-06T03:15:23.411Z,91.47
2019-04-06T03:16:28.096Z,79.80
2019-04-06T03:17:32.755Z,89.33
2019-04-06T03:18:37.803Z,86.47
2019-04-06T03:19:42.698Z,87.83
2019-04-06T03:20:47.766Z,86.23
2019-04-06T03:21:52.654Z,89.13
2019-04-06T03:22:57.517Z,81.30
2019-04-06T03:24:02.268Z,86.67
2019-04-06T03:25:07.156Z,84.87
2019-04-06T03:26:11.878Z,82.67
2019-04-06T03:27:16.854Z,82.37
2019-04-06T03:28:21.728Z,88.20
2019-04-06T03:29:26.597Z,87.60
2019-04-06T03:30:31.448Z,83.17
2019-04-06T03:31:36.059Z,88.73
2019-04-06T03:32:40.837Z,95.23
2019-04-06T03:33:48.639Z,88.73
2019-04-06T03:34:53.686Z,84.00
2019-04-06T03:35:58.582Z,90.33
2019-04-06T03:37:03.471Z,91.73
2019-04-06T03:38:10.983Z,94.23
2019-04-06T03:39:15.987Z,88.43
2019-04-06T03:40:20.680Z,91.63
2019-04-06T03:41:25.491Z,91.67
2019-04-06T03:42:30.296Z,85.93
2019-04-06T03:43:34.997Z,88.63
2019-04-06T03:44:39.759Z,91.67
2019-04-06T03:45:44.768Z,88.13
2019-04-06T03:46:49.463Z,86.07
2019-04-06T03:47:54.285Z,90.33
2019-04-06T03:48:59.051Z,93.37
2019-04-06T03:50:04.018Z,96.83
2019-04-06T03:51:08.730Z,95.70
2019-04-06T03:52:13.484Z,92.63
2019-04-06T03:53:18.346Z,88.00
2019-04-06T03:54:23.246Z,88.47
2019-04-06T03:55:28.097Z,96.00
2019-04-06T03:56:32.922Z,86.73
2019-04-06T03:57:37.676Z,93.13
2019-04-06T03:58:42.508Z,89.63
2019-04-06T03:59:47.680Z,83.30
2019-04-06T04:00:52.714Z,88.10
2019-04-06T04:01:57.530Z,96.57
2019-04-06T04:03:02.699Z,98.23
2019-04-06T04:04:07.946Z,93.70
2019-04-06T04:05:12.955Z,95.83
2019-04-06T04:06:17.680Z,90.07
2019-04-06T04:07:22.675Z,92.07
2019-04-06T04:08:27.719Z,89.00
2019-04-06T04:09:35.442Z,92.63
2019-04-06T04:10:40.439Z,88.37
2019-04-06T04:11:45.530Z,89.27
2019-04-06T04:12:50.455Z,91.47
2019-04-06T04:13:55.212Z,90.73
2019-04-06T04:15:00.307Z,94.77
2019-04-06T04:16:05.255Z,86.03
2019-04-06T04:17:10.086Z,89.27
2019-04-06T04:18:15.191Z,88.50
2019-04-06T04:19:19.978Z,94.43
2019-04-06T04:20:24.634Z,87.73
2019-04-06T04:21:29.570Z,89.83
2019-04-06T04:22:35.016Z,98.10
2019-04-06T04:23:40.022Z,92.60
2019-04-06T04:24:45.396Z,101.80
2019-04-06T04:25:50.612Z,94.83
2019-04-06T04:26:55.331Z,87.50
2019-04-06T04:28:00.439Z,92.87
2019-04-06T04:29:05.795Z,89.80
2019-04-06T04:30:11.051Z,85.87
2019-04-06T04:31:15.758Z,99.67
2019-04-06T04:32:20.593Z,96.80
2019-04-06T04:33:25.392Z,99.53
2019-04-06T04:34:30.408Z,95.77
2019-04-06T04:35:35.124Z,90.83
2019-04-06T04:36:39.982Z,99.13
2019-04-06T04:37:44.956Z,91.93
2019-04-06T04:38:49.721Z,91.27
2019-04-06T04:39:54.417Z,86.27
2019-04-06T04:40:59.285Z,88.03
2019-04-06T04:42:04.070Z,91.20
2019-04-06T04:43:08.839Z,88.13
2019-04-06T04:44:14.158Z,100.37
2019-04-06T04:45:19.188Z,100.40
2019-04-06T04:46:24.166Z,90.50
2019-04-06T04:47:29.086Z,91.50
2019-04-06T04:48:33.820Z,90.73
2019-04-06T04:49:38.449Z,93.20
2019-04-06T04:50:43.372Z,88.83
2019-04-06T04:51:48.730Z,103.03
2019-04-06T04:52:53.506Z,96.20
2019-04-06T04:53:57.888Z,96.20
2019-04-06T04:55:02.633Z,98.03
2019-04-06T04:56:07.597Z,93.93
2019-04-06T04:57:12.728Z,92.67
2019-04-06T04:58:17.395Z,102.60
2019-04-06T04:59:22.359Z,101.90
2019-04-06T05:00:27.177Z,96.53
2019-04-06T05:01:31.997Z,96.63
2019-04-06T05:02:36.830Z,104.00
2019-04-06T05:03:41.810Z,95.00
2019-04-06T05:04:46.524Z,92.00
2019-04-06T05:05:51.786Z,109.13
2019-04-06T05:06:56.644Z,105.87
2019-04-06T05:08:01.440Z,103.77
2019-04-06T05:09:07.782Z,99.07
2019-04-06T05:10:13.224Z,88.47
2019-04-06T05:11:17.889Z,104.97
2019-04-06T05:12:22.732Z,106.03
2019-04-06T05:13:28.017Z,100.70
2019-04-06T05:14:57.939Z,101.63
2019-04-06T05:16:11.803Z,89.90
2019-04-06T05:17:16.486Z,96.00
2019-04-06T05:18:21.261Z,90.70
2019-04-06T05:19:26.164Z,94.57
2019-04-06T05:20:30.901Z,87.40
2019-04-06T05:21:35.814Z,101.30
2019-04-06T05:22:40.620Z,106.07
2019-04-06T05:23:45.470Z,94.87
2019-04-06T05:24:50.445Z,93.17
2019-04-06T05:25:55.145Z,99.10
2019-04-06T05:27:00.026Z,92.07
2019-04-06T05:28:04.832Z,98.93
2019-04-06T05:29:09.684Z,107.00
2019-04-06T05:30:14.783Z,98.70
2019-04-06T05:31:19.746Z,101.83
2019-04-06T05:32:24.517Z,100.07
2019-04-06T05:33:29.525Z,106.17
2019-04-06T05:34:34.262Z,95.97
2019-04-06T05:35:39.094Z,96.67
2019-04-06T05:36:43.881Z,89.03
2019-04-06T05:37:49.208Z,91.13
2019-04-06T05:38:54.128Z,100.93
2019-04-06T05:39:58.974Z,94.73
2019-04-06T05:41:03.899Z,95.37
2019-04-06T05:42:09.077Z,91.97
2019-04-06T05:43:14.150Z,95.13
2019-04-06T05:44:18.969Z,94.97
2019-04-06T05:45:23.796Z,89.83
2019-04-06T05:46:28.794Z,88.43
2019-04-06T05:47:33.654Z,92.67
2019-04-06T05:48:38.680Z,89.93
2019-04-06T05:49:43.328Z,94.10
2019-04-06T05:50:48.314Z,92.77
2019-04-06T05:51:53.011Z,88.37
2019-04-06T05:52:57.892Z,93.27
2019-04-06T05:54:02.710Z,92.23
2019-04-06T05:55:07.777Z,98.33
2019-04-06T05:56:12.822Z,91.87
2019-04-06T05:57:17.513Z,103.27
2019-04-06T05:58:22.339Z,91.30
2019-04-06T05:59:27.429Z,95.40
2019-04-06T06:00:32.310Z,93.60
2019-04-06T06:01:40.322Z,88.03
2019-04-06T06:02:43.643Z,90.90
2019-04-06T06:03:48.397Z,97.20
2019-04-06T06:04:53.191Z,89.00
2019-04-06T06:05:57.923Z,88.00
2019-04-06T06:07:02.734Z,94.17
2019-04-06T06:08:08.270Z,82.63
2019-04-06T06:09:13.392Z,88.27
2019-04-06T06:10:18.152Z,92.53
2019-04-06T06:11:23.200Z,84.70
2019-04-06T06:12:27.940Z,97.40
2019-04-06T06:13:33.351Z,84.83
2019-04-06T06:14:38.099Z,85.77
2019-04-06T06:15:43.051Z,90.50
2019-04-06T06:16:47.877Z,88.73
2019-04-06T06:17:54.641Z,90.43
2019-04-06T06:18:59.326Z,92.57
2019-04-06T06:20:04.258Z,87.43
2019-04-06T06:21:09.275Z,89.63
2019-04-06T06:22:14.724Z,100.13
2019-04-06T06:23:19.406Z,90.17
2019-04-06T06:24:24.322Z,82.20
2019-04-06T06:25:29.411Z,85.07
2019-04-06T06:26:34.212Z,89.13
2019-04-06T06:27:39.314Z,75.20
2019-04-06T06:28:44.274Z,74.90
2019-04-06T06:29:49.028Z,88.93
2019-04-06T06:30:54.167Z,88.67
2019-04-06T06:31:59.403Z,84.53
2019-04-06T06:33:04.216Z,79.43
2019-04-06T06:34:09.554Z,85.27
2019-04-06T06:35:14.738Z,82.53
2019-04-06T06:36:19.434Z,82.50
2019-04-06T06:37:24.269Z,88.20
2019-04-06T06:38:29.063Z,88.13
2019-04-06T06:39:33.803Z,82.03
2019-04-06T06:40:38.784Z,84.83
2019-04-06T06:41:43.618Z,89.53
2019-04-06T06:42:48.438Z,94.13
2019-04-06T06:43:53.698Z,85.80
2019-04-06T06:44:58.514Z,94.20
2019-04-06T06:46:03.502Z,91.33
2019-04-06T06:47:08.371Z,90.60
2019-04-06T06:48:13.371Z,83.00
2019-04-06T06:49:18.315Z,92.02
2019-04-06T06:50:23.636Z,78.77
2019-04-06T06:51:28.454Z,83.23
2019-04-06T06:52:33.371Z,75.13
2019-04-06T06:53:38.710Z,87.20
2019-04-06T06:54:43.542Z,79.77
2019-04-06T06:55:48.331Z,84.50
2019-04-06T06:56:53.202Z,84.00
2019-04-06T06:57:58.263Z,77.10
2019-04-06T06:59:03.573Z,82.07
2019-04-06T07:00:09.086Z,77.67
2019-04-06T07:01:14.343Z,86.90
2019-04-06T07:02:19.516Z,86.57
2019-04-06T07:03:24.322Z,83.00
2019-04-06T07:04:29.405Z,82.50
2019-04-06T07:05:34.262Z,78.02
2019-04-06T07:06:39.317Z,86.10
2019-04-06T07:07:44.066Z,79.83
2019-04-06T07:08:49.097Z,79.77
2019-04-06T07:10:04.463Z,76.25
2019-04-06T07:11:00.880Z,79.15
2019-04-06T07:12:05.982Z,78.02
2019-04-06T07:13:10.740Z,74.57
2019-04-06T07:14:18.882Z,77.87
2019-04-06T07:15:23.695Z,85.80
2019-04-06T07:16:28.909Z,74.97
2019-04-06T07:17:33.941Z,72.33
2019-04-06T07:18:38.856Z,78.10
2019-04-06T07:19:43.737Z,84.10
2019-04-06T07:20:48.523Z,70.92
2019-04-06T07:21:55.260Z,77.10
2019-04-06T07:23:00.351Z,76.53
2019-04-06T07:24:05.372Z,80.15
2019-04-06T07:25:10.687Z,76.87
2019-04-06T07:26:15.842Z,78.70
2019-04-06T07:27:20.762Z,77.20
2019-04-06T07:28:37.159Z,77.17
2019-04-06T07:29:32.261Z,78.57
2019-04-06T07:30:37.055Z,84.90
2019-04-06T07:31:41.815Z,86.93
2019-04-06T07:32:46.573Z,84.17
2019-04-06T07:33:54.150Z,75.97
2019-04-06T07:34:59.301Z,88.43
2019-04-06T07:36:04.216Z,74.13
2019-04-06T07:37:09.038Z,80.15
2019-04-06T07:38:14.565Z,77.30
2019-04-06T07:39:19.384Z,79.40
2019-04-06T07:40:24.259Z,72.40
2019-04-06T07:41:29.102Z,81.10
2019-04-06T07:42:34.105Z,83.45
2019-04-06T07:43:39.109Z,85.50
2019-04-06T07:44:43.859Z,86.50
2019-04-06T07:45:49.110Z,73.65
2019-04-06T07:46:54.109Z,82.70
2019-04-06T07:47:59.095Z,74.00
2019-04-06T07:49:09.275Z,85.05
2019-04-06T07:50:11.432Z,80.90
2019-04-06T07:51:16.427Z,78.62
2019-04-06T07:52:21.962Z,79.30
2019-04-06T07:53:26.765Z,80.12
2019-04-06T07:54:31.890Z,80.00
2019-04-06T07:55:37.477Z,73.05
2019-04-06T07:56:42.379Z,75.93
2019-04-06T07:57:47.250Z,77.78
2019-04-06T07:58:52.550Z,86.85
2019-04-06T07:59:57.415Z,80.77
2019-04-06T08:01:02.544Z,76.95
2019-04-06T08:02:07.380Z,82.60
2019-04-06T08:03:12.357Z,70.97
2019-04-06T08:04:17.149Z,78.30
2019-04-06T08:05:22.386Z,71.30
2019-04-06T08:06:27.232Z,83.00
2019-04-06T08:07:32.047Z,79.82
2019-04-06T08:08:37.235Z,70.17
2019-04-06T08:09:42.178Z,75.87
2019-04-06T08:10:47.118Z,74.13
2019-04-06T08:11:52.367Z,76.28
2019-04-06T08:12:57.292Z,72.55
2019-04-06T08:14:02.259Z,76.50
2019-04-06T08:15:07.963Z,77.27
2019-04-06T08:16:13.167Z,78.15
2019-04-06T08:17:17.988Z,75.37
2019-04-06T08:18:22.873Z,73.25
2019-04-06T08:19:27.805Z,82.10
2019-04-06T08:20:32.705Z,74.25
2019-04-06T08:21:37.575Z,70.43
2019-04-06T08:22:42.494Z,68.90
2019-04-06T08:23:47.361Z,69.20
2019-04-06T08:24:52.577Z,68.72
2019-04-06T08:25:57.481Z,67.85
2019-04-06T08:27:02.442Z,72.90
2019-04-06T08:28:08.214Z,75.22
2019-04-06T08:29:13.612Z,68.03
2019-04-06T08:30:19.122Z,66.57
2019-04-06T08:31:24.116Z,61.28
2019-04-06T08:32:29.024Z,73.50
2019-04-06T08:33:33.968Z,63.55
2019-04-06T08:34:38.716Z,65.70
2019-04-06T08:35:43.646Z,69.92
2019-04-06T08:36:48.426Z,63.58
2019-04-06T08:37:53.939Z,56.90
2019-04-06T08:38:59.630Z,63.52
2019-04-06T08:40:05.303Z,60.50
2019-04-06T08:41:10.013Z,68.60
2019-04-06T08:42:15.631Z,58.60
2019-04-06T08:43:20.551Z,60.73
2019-04-06T08:44:25.268Z,59.80
2019-04-06T08:45:29.950Z,58.55
2019-04-06T08:46:34.874Z,59.30
2019-04-06T08:47:39.558Z,56.30
2019-04-06T08:48:44.411Z,65.65
2019-04-06T08:49:49.192Z,58.63
2019-04-06T08:50:53.956Z,59.55
2019-04-06T08:51:59.026Z,60.33
2019-04-06T08:53:03.896Z,58.40
2019-04-06T08:54:08.601Z,55.63
2019-04-06T08:55:13.709Z,60.55
2019-04-06T08:56:18.862Z,58.15
2019-04-06T08:57:23.687Z,59.53
2019-04-06T08:58:28.541Z,59.08
2019-04-06T08:59:33.293Z,57.85
2019-04-06T09:00:38.065Z,56.45
2019-04-06T09:01:42.829Z,54.33
2019-04-06T09:02:47.700Z,59.93
2019-04-06T09:03:52.503Z,57.45
2019-04-06T09:04:57.255Z,60.85
2019-04-06T09:06:02.149Z,54.65
2019-04-06T09:07:06.881Z,54.70
2019-04-06T09:08:11.857Z,57.58
2019-04-06T09:09:16.576Z,56.45
2019-04-06T09:10:21.420Z,54.00
2019-04-06T09:11:26.125Z,53.25
2019-04-06T09:12:30.857Z,53.23
2019-04-06T09:13:35.815Z,58.63
2019-04-06T09:14:40.613Z,51.35
2019-04-06T09:15:45.247Z,56.58
2019-04-06T09:16:50.066Z,55.20
2019-04-06T09:17:55.207Z,59.08
2019-04-06T09:19:00.122Z,56.48
2019-04-06T09:20:05.790Z,58.25
2019-04-06T09:21:10.576Z,56.60
2019-04-06T09:22:16.104Z,53.80
2019-04-06T09:23:20.924Z,57.15
2019-04-06T09:24:25.710Z,54.10
2019-04-06T09:25:30.472Z,54.15
2019-04-06T09:26:35.225Z,60.15
2019-04-06T09:27:39.326Z,56.30
2019-04-06T09:28:44.092Z,59.63
2019-04-06T09:29:49.058Z,59.00
2019-04-06T09:30:54.188Z,58.33
2019-04-06T09:31:58.988Z,55.30
2019-04-06T09:33:03.784Z,54.33
2019-04-06T09:34:08.626Z,56.75
2019-04-06T09:35:13.720Z,55.58
2019-04-06T09:36:18.883Z,57.62
2019-04-06T09:37:23.631Z,53.25
2019-04-06T09:38:28.607Z,54.73
2019-04-06T09:39:33.511Z,56.15
2019-04-06T09:40:40.751Z,58.02
2019-04-06T09:41:45.423Z,51.37
2019-04-06T09:42:50.213Z,54.70
2019-04-06T09:43:54.996Z,52.78
2019-04-06T09:45:18.606Z,55.43
2019-04-06T09:46:51.339Z,48.60
2019-04-06T09:48:15.498Z,50.80
2019-04-06T09:49:38.097Z,56.98
2019-04-06T09:51:00.631Z,50.73
2019-04-06T09:52:24.453Z,52.70
2019-04-06T09:53:46.860Z,58.78
2019-04-06T09:55:02.123Z,53.87
2019-04-06T09:56:17.663Z,50.48
2019-04-06T09:57:47.312Z,53.35
2019-04-06T09:59:01.936Z,53.48
2019-04-06T10:00:33.007Z,56.10
2019-04-06T10:02:02.571Z,54.20
2019-04-06T10:03:24.606Z,51.37
2019-04-06T10:04:48.736Z,51.65
2019-04-06T10:06:18.873Z,48.52
2019-04-06T10:07:39.932Z,52.48
2019-04-06T10:09:03.531Z,53.23
2019-04-06T10:10:27.295Z,50.60
2019-04-06T10:11:57.182Z,52.20
2019-04-06T10:13:23.891Z,55.08
2019-04-06T10:14:38.736Z,54.60
2019-04-06T10:16:05.331Z,51.55
2019-04-06T10:17:38.222Z,48.80
2019-04-06T10:19:02.110Z,50.60
2019-04-06T10:20:24.535Z,52.43
2019-04-06T10:21:57.052Z,50.85
2019-04-06T10:23:23.589Z,51.15
2019-04-06T10:24:49.852Z,52.50
2019-04-06T10:26:16.261Z,51.98
2019-04-06T10:27:31.046Z,49.45
2019-04-06T10:29:00.883Z,55.28
2019-04-06T10:30:24.762Z,53.80
2019-04-06T10:31:48.472Z,56.28
2019-04-06T10:33:01.592Z,52.00
2019-04-06T10:34:40.573Z,50.05
2019-04-06T10:36:13.513Z,50.17
2019-04-06T10:37:42.971Z,50.73
2019-04-06T10:39:09.540Z,55.45
2019-04-06T10:40:36.168Z,53.55
2019-04-06T10:42:09.143Z,53.08
2019-04-06T10:43:34.074Z,50.10
2019-04-06T10:44:56.189Z,49.33
2019-04-06T10:46:28.919Z,50.12
2019-04-06T10:47:50.906Z,51.77
2019-04-06T10:49:23.910Z,52.08
2019-04-06T10:50:45.848Z,54.75
2019-04-06T10:52:07.520Z,50.73
2019-04-06T10:53:29.703Z,47.88
2019-04-06T10:54:52.343Z,50.45
2019-04-06T10:56:03.902Z,52.53
2019-04-06T10:57:27.753Z,51.85
2019-04-06T10:59:03.783Z,44.83
2019-04-06T11:00:33.723Z,50.98
2019-04-06T11:01:57.007Z,46.77
2019-04-06T11:03:14.928Z,51.65
2019-04-06T11:04:41.687Z,50.55
2019-04-06T11:06:00.382Z,51.37
2019-04-06T11:07:13.443Z,54.67
2019-04-06T11:08:35.444Z,52.60
2019-04-06T11:10:11.184Z,46.20
2019-04-06T11:11:49.929Z,52.25
2019-04-06T11:13:22.679Z,47.35
2019-04-06T11:14:37.641Z,49.93
2019-04-06T11:16:04.263Z,51.75
2019-04-06T11:17:33.906Z,46.73
2019-04-06T11:18:56.194Z,46.83
2019-04-06T11:20:08.916Z,47.00
2019-04-06T11:21:27.625Z,49.60
2019-04-06T11:23:04.981Z,50.30
2019-04-06T11:24:31.551Z,47.05
2019-04-06T11:25:55.034Z,47.78
2019-04-06T11:27:21.225Z,48.45
2019-04-06T11:28:43.449Z,45.95
2019-04-06T11:30:15.887Z,45.48
2019-04-06T11:31:44.264Z,49.23
2019-04-06T11:33:06.569Z,51.53
2019-04-06T11:34:42.254Z,51.95
2019-04-06T11:36:08.683Z,50.15
2019-04-06T11:37:32.404Z,45.08
2019-04-06T11:38:54.269Z,54.00
2019-04-06T11:40:13.699Z,52.15
2019-04-06T11:41:28.263Z,47.58
2019-04-06T11:43:00.906Z,49.27
2019-04-06T11:44:27.330Z,46.37
2019-04-06T11:45:51.031Z,46.83
2019-04-06T11:47:17.367Z,49.65
2019-04-06T11:48:53.145Z,52.95
2019-04-06T11:50:20.002Z,46.68
2019-04-06T11:51:50.711Z,47.38
2019-04-06T11:53:17.172Z,51.75
2019-04-06T11:54:50.079Z,47.08
2019-04-06T11:56:16.676Z,47.53
2019-04-06T11:57:34.319Z,49.10
2019-04-06T11:59:10.015Z,45.73
2019-04-06T12:00:27.162Z,45.00
2019-04-06T12:02:05.866Z,47.62
2019-04-06T12:03:19.194Z,51.23
2019-04-06T12:04:46.014Z,46.05
2019-04-06T12:06:12.495Z,46.68
2019-04-06T12:07:24.125Z,49.10
2019-04-06T12:08:37.322Z,48.00
2019-04-06T12:10:13.089Z,47.65
2019-04-06T12:11:39.778Z,53.25
2019-04-06T12:13:05.624Z,46.10
2019-04-06T12:14:24.182Z,46.85
2019-04-06T12:15:37.216Z,44.90
2019-04-06T12:16:50.677Z,48.33
2019-04-06T12:18:12.989Z,46.60
2019-04-06T12:19:32.950Z,49.42
2019-04-06T12:20:52.011Z,44.93
2019-04-06T12:22:18.703Z,46.40
2019-04-06T12:23:40.875Z,39.63
2019-04-06T12:25:11.216Z,44.90
2019-04-06T12:26:23.206Z,42.50
2019-04-06T12:27:46.895Z,48.70
2019-04-06T12:29:04.193Z,44.45
2019-04-06T12:30:37.415Z,47.23
2019-04-06T12:32:02.214Z,44.00
2019-04-06T12:33:22.008Z,44.67
2019-04-06T12:34:54.954Z,51.63
2019-04-06T12:36:30.759Z,45.23
2019-04-06T12:37:42.622Z,46.15
2019-04-06T12:38:55.577Z,46.37
2019-04-06T12:40:22.582Z,44.03
2019-04-06T12:41:55.229Z,44.55
2019-04-06T12:43:18.988Z,46.65
2019-04-06T12:44:45.624Z,44.93
2019-04-06T12:46:08.982Z,47.62
2019-04-06T12:47:32.855Z,47.17
2019-04-06T12:49:02.346Z,40.38
2019-04-06T12:50:16.174Z,44.83
2019-04-06T12:51:46.330Z,44.30
2019-04-06T12:53:05.486Z,44.53
2019-04-06T12:54:27.610Z,44.13
2019-04-06T12:55:49.720Z,46.53
2019-04-06T12:57:12.227Z,45.85
2019-04-06T12:58:44.648Z,45.73
2019-04-06T12:59:54.981Z,42.80
2019-04-06T13:01:16.657Z,45.45
2019-04-06T13:02:38.337Z,41.83
2019-04-06T13:04:00.656Z,41.53
2019-04-06T13:05:23.551Z,46.02
2019-04-06T13:06:56.349Z,40.50
2019-04-06T13:08:12.875Z,41.53
2019-04-06T13:09:42.518Z,52.88
2019-04-06T13:10:54.821Z,47.40
2019-04-06T13:12:24.583Z,47.23
2019-04-06T13:13:44.668Z,46.68
2019-04-06T13:15:05.732Z,48.25
2019-04-06T13:16:46.903Z,43.68
2019-04-06T13:18:22.998Z,47.20
2019-04-06T13:19:46.768Z,41.45
2019-04-06T13:21:09.131Z,44.98
2019-04-06T13:22:51.343Z,42.55
2019-04-06T13:24:07.079Z,45.40
2019-04-06T13:25:39.795Z,45.50
2019-04-06T13:27:00.590Z,41.73
2019-04-06T13:28:20.930Z,46.08
2019-04-06T13:29:43.308Z,49.77
2019-04-06T13:31:08.489Z,44.18
2019-04-06T13:32:41.450Z,40.98
2019-04-06T13:34:02.751Z,46.35
2019-04-06T13:35:35.782Z,46.35
2019-04-06T13:37:02.217Z,44.88
2019-04-06T13:38:37.907Z,45.03
2019-04-06T13:39:59.515Z,45.85
2019-04-06T13:41:23.230Z,50.33
2019-04-06T13:42:46.820Z,41.85
2019-04-06T13:44:01.932Z,46.20
2019-04-06T13:45:24.646Z,46.33
2019-04-06T13:46:39.908Z,49.60
2019-04-06T13:48:10.331Z,46.13
2019-04-06T13:49:52.200Z,46.53
2019-04-06T13:51:08.484Z,43.13
2019-04-06T13:52:19.890Z,46.15
2019-04-06T13:53:58.596Z,43.68
2019-04-06T13:55:37.340Z,44.75
2019-04-06T13:56:53.880Z,48.73
2019-04-06T13:58:32.520Z,48.83
2019-04-06T13:59:47.993Z,41.80
2019-04-06T14:00:59.702Z,46.23
2019-04-06T14:02:20.658Z,46.02
2019-04-06T14:03:46.053Z,46.02
2019-04-06T14:05:09.701Z,42.75
2019-04-06T14:06:33.648Z,42.95
2019-04-06T14:07:51.035Z,44.27
2019-04-06T14:09:10.551Z,47.98
2019-04-06T14:10:37.098Z,43.75
2019-04-06T14:11:56.472Z,43.42
2019-04-06T14:13:38.739Z,42.38
2019-04-06T14:14:49.561Z,43.78
2019-04-06T14:16:14.358Z,41.83
2019-04-06T14:17:36.961Z,43.38
2019-04-06T14:18:59.437Z,41.83
2019-04-06T14:20:22.027Z,46.53
2019-04-06T14:21:45.669Z,43.75
2019-04-06T14:23:03.788Z,43.68
2019-04-06T14:24:46.151Z,43.70
2019-04-06T14:26:06.996Z,41.68
2019-04-06T14:27:45.887Z,41.63
2019-04-06T14:28:57.674Z,42.05
2019-04-06T14:30:16.744Z,42.20
2019-04-06T14:31:33.514Z,42.70
2019-04-06T14:32:52.253Z,40.38
2019-04-06T14:34:27.564Z,38.40
2019-04-06T14:35:49.251Z,38.25
2019-04-06T14:37:28.487Z,38.30
2019-04-06T14:38:52.205Z,35.85
2019-04-06T14:42:00.677Z,40.28
2019-04-06T14:43:36.526Z,37.00
2019-04-06T14:44:54.714Z,37.00
2019-04-06T14:46:20.226Z,36.83
2019-04-06T14:47:52.457Z,35.25
2019-04-06T14:49:28.529Z,36.03
2019-04-06T14:50:36.955Z,40.20
2019-04-06T14:51:58.947Z,33.90
2019-04-06T14:53:31.610Z,38.10
2019-04-06T14:54:43.913Z,35.17
2019-04-06T14:56:10.467Z,32.98
2019-04-06T14:57:23.618Z,34.85
2019-04-06T14:58:53.571Z,34.73
2019-04-06T15:00:26.686Z,34.48
2019-04-06T15:01:58.912Z,37.05
2019-04-06T15:03:19.684Z,32.40
2019-04-06T15:04:35.283Z,40.05
2019-04-06T15:05:56.164Z,40.35
2019-04-06T15:07:19.487Z,37.48
2019-04-06T15:08:43.653Z,32.15
2019-04-06T15:09:57.442Z,30.37
2019-04-06T15:11:29.604Z,33.78
2019-04-06T15:12:58.189Z,32.98
2019-04-06T15:14:33.805Z,35.30
2019-04-06T15:16:03.629Z,30.52
2019-04-06T15:17:18.004Z,32.63
2019-04-06T15:18:39.708Z,30.70